Time,TemperatureF,DewpointF,PressureIn,WindDirection,WindDirectionDegrees,WindSpeedMPH,WindSpeedGustMPH,Humidity,HourlyPrecipIn,Conditions,Clouds,dailyrainin,SoftwareType,DateUTC
2013-11-20 00:01:00,44.1,28.5,29.65,SSW,192,7.0,11.0,54,0.00,,,0.00,VWS V14.01,2013-11-20 06:01:00,
2013-11-20 00:06:00,44.1,28.5,29.65,SSW,198,11.0,11.0,54,0.00,,,0.00,VWS V14.01,2013-11-20 06:06:00,
2013-11-20 00:11:00,44.2,29.1,29.65,SSW,203,7.0,12.0,55,0.00,,,0.00,VWS V14.01,2013-11-20 06:11:00,
2013-11-20 00:16:00,44.3,28.7,29.65,SSW,198,7.0,12.0,54,0.00,,,0.00,VWS V14.01,2013-11-20 06:16:00,
2013-11-20 00:21:00,44.3,28.7,29.65,SSW,206,10.0,14.0,54,0.00,,,0.00,VWS V14.01,2013-11-20 06:21:00,
2013-11-20 00:26:00,44.5,28.9,29.65,SSW,203,10.0,14.0,54,0.00,,,0.00,VWS V14.01,2013-11-20 06:26:00,
2013-11-20 00:31:00,44.5,28.0,29.65,SSW,205,11.0,16.0,52,0.00,,,0.00,VWS V14.01,2013-11-20 06:31:00,
2013-11-20 00:36:00,44.6,28.1,29.64,SSW,205,12.0,14.0,52,0.00,,,0.00,VWS V14.01,2013-11-20 06:36:00,
2013-11-20 00:41:00,44.5,28.5,29.64,SSW,198,12.0,14.0,53,0.00,,,0.00,VWS V14.01,2013-11-20 06:41:00,
2013-11-20 00:46:00,44.3,28.7,29.64,SSW,209,11.0,14.0,54,0.00,,,0.00,VWS V14.01,2013-11-20 06:46:00,
2013-11-20 00:51:00,44.1,29.0,29.64,SSW,198,12.0,12.0,55,0.00,,,0.00,VWS V14.01,2013-11-20 06:51:00,
2013-11-20 00:56:00,43.9,29.2,29.64,SSW,206,12.0,12.0,56,0.00,,,0.00,VWS V14.01,2013-11-20 06:56:00,
2013-11-20 01:01:00,43.8,28.7,29.64,SSW,205,12.0,14.0,55,0.00,,,0.00,VWS V14.01,2013-11-20 07:01:00,
2013-11-20 01:06:00,43.6,29.8,29.63,South,188,7.0,13.0,58,0.00,,,0.00,VWS V14.01,2013-11-20 07:06:00,
2013-11-20 01:11:00,43.8,30.0,29.63,SSW,202,13.0,14.0,58,0.00,,,0.00,VWS V14.01,2013-11-20 07:11:00,
2013-11-20 01:16:00,43.9,30.1,29.63,SSW,192,11.0,14.0,58,0.00,,,0.00,VWS V14.01,2013-11-20 07:16:00,
2013-11-20 01:21:00,43.8,29.6,29.62,SSW,199,11.0,13.0,57,0.00,,,0.00,VWS V14.01,2013-11-20 07:21:00,
2013-11-20 01:26:00,43.6,29.0,29.62,SSW,205,8.0,13.0,56,0.00,,,0.00,VWS V14.01,2013-11-20 07:26:00,
2013-11-20 01:31:00,43.6,30.6,29.62,SSW,206,10.0,13.0,60,0.00,,,0.00,VWS V14.01,2013-11-20 07:31:00,
2013-11-20 01:36:00,43.5,30.1,29.61,SSW,206,10.0,11.0,59,0.00,,,0.00,VWS V14.01,2013-11-20 07:36:00,
2013-11-20 01:41:00,43.3,30.0,29.61,SSW,208,7.0,13.0,59,0.00,,,0.00,VWS V14.01,2013-11-20 07:41:00,
2013-11-20 01:46:00,43.2,30.3,29.61,SSW,200,12.0,13.0,60,0.00,,,0.00,VWS V14.01,2013-11-20 07:46:00,
2013-11-20 01:51:00,43.3,30.4,29.61,SSW,205,12.0,14.0,60,0.00,,,0.00,VWS V14.01,2013-11-20 07:51:00,
2013-11-20 01:56:00,43.3,30.4,29.61,SSW,193,10.0,14.0,60,0.00,,,0.00,VWS V14.01,2013-11-20 07:56:00,
2013-11-20 02:01:00,43.5,30.1,29.61,SSW,203,11.0,15.0,59,0.00,,,0.00,VWS V14.01,2013-11-20 08:01:00,
2013-11-20 02:06:00,43.5,30.5,29.61,SSW,198,12.0,14.0,60,0.00,,,0.00,VWS V14.01,2013-11-20 08:06:00,
2013-11-20 02:11:00,43.6,30.2,29.61,SSW,203,12.0,14.0,59,0.00,,,0.00,VWS V14.01,2013-11-20 08:11:00,
2013-11-20 02:17:00,43.9,30.5,29.61,SSW,203,10.0,14.0,59,0.00,,,0.00,VWS V14.01,2013-11-20 08:17:00,
2013-11-20 02:22:00,44.1,30.7,29.61,SSW,206,10.0,12.0,59,0.00,,,0.00,VWS V14.01,2013-11-20 08:22:00,
2013-11-20 02:27:00,44.1,30.7,29.61,SSW,208,7.0,12.0,59,0.00,,,0.00,VWS V14.01,2013-11-20 08:27:00,
2013-11-20 02:32:00,43.9,31.3,29.61,SSW,213,10.0,12.0,61,0.00,,,0.00,VWS V14.01,2013-11-20 08:32:00,
2013-11-20 02:37:00,43.8,31.2,29.61,SW,216,7.0,10.0,61,0.00,,,0.00,VWS V14.01,2013-11-20 08:37:00,
2013-11-20 02:42:00,43.6,31.0,29.61,SSW,209,8.0,11.0,61,0.00,,,0.00,VWS V14.01,2013-11-20 08:42:00,
2013-11-20 02:47:00,43.5,31.4,29.61,SSW,208,8.0,11.0,62,0.00,,,0.00,VWS V14.01,2013-11-20 08:47:00,
2013-11-20 02:52:00,43.5,31.4,29.62,SSW,205,5.0,10.0,62,0.00,,,0.00,VWS V14.01,2013-11-20 08:52:00,
2013-11-20 02:57:00,43.5,31.4,29.62,SSW,193,12.0,12.0,62,0.00,,,0.00,VWS V14.01,2013-11-20 08:57:00,
2013-11-20 03:02:00,43.6,31.5,29.62,SSW,205,8.0,12.0,62,0.00,,,0.00,VWS V14.01,2013-11-20 09:02:00,
2013-11-20 03:07:00,43.8,31.6,29.62,SSW,200,8.0,12.0,62,0.00,,,0.00,VWS V14.01,2013-11-20 09:07:00,
2013-11-20 03:12:00,43.9,31.7,29.62,SSW,206,7.0,12.0,62,0.00,,,0.00,VWS V14.01,2013-11-20 09:12:00,
2013-11-20 03:17:00,43.9,32.5,29.62,SSW,210,12.0,17.0,64,0.00,,,0.00,VWS V14.01,2013-11-20 09:17:00,
2013-11-20 03:22:00,43.9,31.7,29.62,SW,215,10.0,12.0,62,0.00,,,0.00,VWS V14.01,2013-11-20 09:22:00,
2013-11-20 03:27:00,43.8,32.4,29.62,SW,220,7.0,12.0,64,0.00,,,0.00,VWS V14.01,2013-11-20 09:27:00,
2013-11-20 03:32:00,43.6,32.2,29.62,SW,220,8.0,12.0,64,0.00,,,0.00,VWS V14.01,2013-11-20 09:32:00,
2013-11-20 03:37:00,43.6,32.2,29.62,SSW,208,7.0,13.0,64,0.00,,,0.00,VWS V14.01,2013-11-20 09:37:00,
2013-11-20 03:42:00,43.6,32.6,29.62,SSW,208,8.0,13.0,65,0.00,,,0.00,VWS V14.01,2013-11-20 09:42:00,
2013-11-20 03:47:00,43.5,32.5,29.62,SW,215,7.0,13.0,65,0.00,,,0.00,VWS V14.01,2013-11-20 09:47:00,
2013-11-20 03:52:00,43.3,32.3,29.62,SW,220,7.0,10.0,65,0.00,,,0.00,VWS V14.01,2013-11-20 09:52:00,
2013-11-20 03:57:00,43.2,32.6,29.62,SW,216,7.0,11.0,66,0.00,,,0.00,VWS V14.01,2013-11-20 09:57:00,
2013-11-20 04:02:00,43.1,32.5,29.62,SSW,206,7.0,12.0,66,0.00,,,0.00,VWS V14.01,2013-11-20 10:02:00,
2013-11-20 04:07:00,42.9,32.7,29.62,SSW,209,7.0,11.0,67,0.00,,,0.00,VWS V14.01,2013-11-20 10:07:00,
2013-11-20 04:12:00,42.8,32.6,29.62,SSW,208,7.0,11.0,67,0.00,,,0.00,VWS V14.01,2013-11-20 10:12:00,
2013-11-20 04:17:00,42.8,33.3,29.62,SSW,208,5.0,11.0,69,0.00,,,0.00,VWS V14.01,2013-11-20 10:17:00,
2013-11-20 04:22:00,42.6,34.6,29.62,SSW,205,6.0,10.0,73,0.00,,,0.00,VWS V14.01,2013-11-20 10:22:00,
2013-11-20 04:27:00,42.3,33.6,29.62,SSW,213,7.0,10.0,71,0.00,,,0.00,VWS V14.01,2013-11-20 10:27:00,
2013-11-20 04:32:00,42.2,34.2,29.62,SW,216,9.0,10.0,73,0.00,,,0.00,VWS V14.01,2013-11-20 10:32:00,
2013-11-20 04:37:00,42.2,34.5,29.62,SW,219,7.0,12.0,74,0.00,,,0.00,VWS V14.01,2013-11-20 10:37:00,
2013-11-20 04:42:00,42.1,35.8,29.62,SW,220,8.0,12.0,78,0.00,,,0.00,VWS V14.01,2013-11-20 10:42:00,
2013-11-20 04:47:00,41.9,35.5,29.62,SW,216,7.0,12.0,78,0.00,,,0.00,VWS V14.01,2013-11-20 10:47:00,
2013-11-20 04:52:00,41.8,37.0,29.62,SW,226,7.0,8.0,83,0.00,,,0.00,VWS V14.01,2013-11-20 10:52:00,
2013-11-20 04:57:00,41.6,37.4,29.62,SW,220,7.0,10.0,85,0.00,,,0.00,VWS V14.01,2013-11-20 10:57:00,
2013-11-20 05:02:00,41.6,38.6,29.62,SW,222,8.0,10.0,89,0.00,,,0.00,VWS V14.01,2013-11-20 11:02:00,
2013-11-20 05:07:00,41.6,39.2,29.62,SW,217,7.0,9.0,91,0.00,,,0.00,VWS V14.01,2013-11-20 11:07:00,
2013-11-20 05:12:00,41.5,39.9,29.62,SW,217,5.0,10.0,94,0.00,,,0.00,VWS V14.01,2013-11-20 11:12:00,
2013-11-20 05:17:00,41.5,40.2,29.62,SW,217,6.0,10.0,95,0.00,,,0.00,VWS V14.01,2013-11-20 11:17:00,
2013-11-20 05:22:00,41.3,40.8,29.62,SSW,202,6.0,7.0,98,0.00,,,0.00,VWS V14.01,2013-11-20 11:22:00,
2013-11-20 05:27:00,41.3,40.8,29.62,SSW,205,7.0,8.0,98,0.00,,,0.00,VWS V14.01,2013-11-20 11:27:00,
2013-11-20 05:32:00,41.3,41.3,29.63,SW,217,6.0,10.0,100,0.00,,,0.00,VWS V14.01,2013-11-20 11:32:00,
2013-11-20 05:37:00,41.2,41.2,29.63,SW,223,5.0,7.0,100,0.00,,,0.00,VWS V14.01,2013-11-20 11:37:00,
2013-11-20 05:42:00,41.1,41.1,29.63,SW,223,2.0,7.0,100,0.00,,,0.00,VWS V14.01,2013-11-20 11:42:00,
2013-11-20 05:47:00,41.1,41.1,29.62,SW,223,5.0,7.0,100,0.00,,,0.00,VWS V14.01,2013-11-20 11:47:00,
2013-11-20 05:52:00,40.9,40.9,29.62,SW,224,3.0,6.0,100,0.00,,,0.00,VWS V14.01,2013-11-20 11:52:00,
2013-11-20 05:57:00,40.9,40.9,29.62,SW,224,3.0,6.0,100,0.00,,,0.00,VWS V14.01,2013-11-20 11:57:00,
2013-11-20 06:02:00,40.9,40.9,29.62,SW,224,4.0,7.0,100,0.00,,,0.00,VWS V14.01,2013-11-20 12:02:00,
2013-11-20 06:07:00,41.1,41.1,29.62,SW,220,7.0,8.0,100,0.00,,,0.00,VWS V14.01,2013-11-20 12:07:00,
2013-11-20 06:12:00,41.1,41.1,29.62,SW,223,7.0,8.0,100,0.00,,,0.00,VWS V14.01,2013-11-20 12:12:00,
2013-11-20 06:17:00,40.9,40.9,29.63,SW,222,6.0,8.0,100,0.00,,,0.00,VWS V14.01,2013-11-20 12:17:00,
2013-11-20 06:22:00,40.8,40.8,29.63,SW,222,3.0,7.0,100,0.00,,,0.00,VWS V14.01,2013-11-20 12:22:00,
2013-11-20 06:27:00,40.6,40.6,29.63,SW,220,6.0,7.0,100,0.00,,,0.00,VWS V14.01,2013-11-20 12:27:00,
2013-11-20 06:32:00,40.3,40.3,29.63,SSW,206,8.0,8.0,100,0.00,,,0.00,VWS V14.01,2013-11-20 12:32:00,
2013-11-20 06:37:00,40.2,40.2,29.63,SW,216,7.0,11.0,100,0.00,,,0.00,VWS V14.01,2013-11-20 12:37:00,
2013-11-20 06:42:00,40.1,40.1,29.63,SW,215,5.0,11.0,100,0.00,,,0.00,VWS V14.01,2013-11-20 12:42:00,
2013-11-20 06:47:00,39.9,39.9,29.64,SSW,212,7.0,11.0,100,0.00,,,0.00,VWS V14.01,2013-11-20 12:47:00,
2013-11-20 06:52:00,39.6,39.6,29.64,SW,223,6.0,8.0,100,0.00,,,0.00,VWS V14.01,2013-11-20 12:52:00,
2013-11-20 06:57:00,39.3,39.3,29.64,SW,226,5.0,8.0,100,0.00,,,0.00,VWS V14.01,2013-11-20 12:57:00,
2013-11-20 07:02:00,38.9,38.9,29.65,SW,226,5.0,8.0,100,0.00,,,0.00,VWS V14.01,2013-11-20 13:02:00,
2013-11-20 07:07:00,38.6,38.6,29.65,SW,226,5.0,7.0,100,0.00,,,0.00,VWS V14.01,2013-11-20 13:07:00,
2013-11-20 07:12:00,38.0,38.0,29.65,SW,226,3.0,7.0,100,0.00,,,0.00,VWS V14.01,2013-11-20 13:12:00,
2013-11-20 07:17:00,37.8,37.8,29.66,SW,229,5.0,7.0,100,0.00,,,0.00,VWS V14.01,2013-11-20 13:17:00,
2013-11-20 07:22:00,37.6,37.6,29.66,SW,227,4.0,6.0,100,0.00,,,0.00,VWS V14.01,2013-11-20 13:22:00,
2013-11-20 07:27:00,37.5,37.5,29.66,SW,229,6.0,7.0,100,0.00,,,0.00,VWS V14.01,2013-11-20 13:27:00,
2013-11-20 07:32:00,37.3,37.3,29.67,SW,229,3.0,7.0,100,0.00,,,0.00,VWS V14.01,2013-11-20 13:32:00,
2013-11-20 07:37:00,37.2,37.2,29.67,SW,229,3.0,5.0,100,0.00,,,0.00,VWS V14.01,2013-11-20 13:37:00,
2013-11-20 07:42:00,37.0,37.0,29.67,SW,229,3.0,5.0,100,0.00,,,0.00,VWS V14.01,2013-11-20 13:42:00,
2013-11-20 07:47:00,37.2,37.2,29.67,SW,232,4.0,5.0,100,0.00,,,0.00,VWS V14.01,2013-11-20 13:47:00,
2013-11-20 07:52:00,37.3,37.3,29.67,WSW,246,5.0,6.0,100,0.00,,,0.00,VWS V14.01,2013-11-20 13:52:00,
2013-11-20 07:57:00,37.2,37.2,29.67,WSW,247,5.0,6.0,100,0.00,,,0.00,VWS V14.01,2013-11-20 13:57:00,
2013-11-20 08:02:00,37.2,37.2,29.67,WSW,248,5.0,6.0,100,0.00,,,0.00,VWS V14.01,2013-11-20 14:02:00,
2013-11-20 08:07:00,37.2,37.2,29.67,WSW,250,2.0,6.0,100,0.00,,,0.00,VWS V14.01,2013-11-20 14:07:00,
2013-11-20 08:12:00,37.2,37.2,29.67,WSW,250,0.0,6.0,100,0.00,,,0.00,VWS V14.01,2013-11-20 14:12:00,
2013-11-20 08:17:00,37.3,37.3,29.67,WSW,250,2.0,6.0,100,0.00,,,0.00,VWS V14.01,2013-11-20 14:17:00,
2013-11-20 08:22:00,37.5,37.5,29.67,WSW,250,2.0,3.0,100,0.00,,,0.00,VWS V14.01,2013-11-20 14:22:00,
2013-11-20 08:27:00,37.5,37.5,29.67,WSW,250,4.0,5.0,100,0.00,,,0.00,VWS V14.01,2013-11-20 14:27:00,
2013-11-20 08:32:00,37.5,37.5,29.67,WSW,251,5.0,6.0,100,0.00,,,0.00,VWS V14.01,2013-11-20 14:32:00,
2013-11-20 08:37:00,37.3,37.3,29.67,WSW,251,2.0,5.0,100,0.00,,,0.00,VWS V14.01,2013-11-20 14:37:00,
2013-11-20 08:42:00,37.8,37.8,29.67,WSW,251,3.0,5.0,100,0.00,,,0.00,VWS V14.01,2013-11-20 14:42:00,
2013-11-20 08:47:00,38.2,38.2,29.67,WSW,251,5.0,5.0,100,0.00,,,0.00,VWS V14.01,2013-11-20 14:47:00,
2013-11-20 08:52:00,39.3,37.7,29.67,WSW,246,6.0,7.0,94,0.00,,,0.00,VWS V14.01,2013-11-20 14:52:00,
2013-11-20 08:57:00,39.9,37.5,29.67,WSW,247,2.0,7.0,91,0.00,,,0.00,VWS V14.01,2013-11-20 14:57:00,
2013-11-20 09:02:00,40.3,37.3,29.67,WSW,250,5.0,7.0,89,0.00,,,0.00,VWS V14.01,2013-11-20 15:02:00,
2013-11-20 09:07:00,41.1,35.7,29.67,WSW,248,3.0,7.0,81,0.00,,,0.00,VWS V14.01,2013-11-20 15:07:00,
2013-11-20 09:12:00,41.9,34.9,29.67,WSW,250,1.0,7.0,76,0.00,,,0.00,VWS V14.01,2013-11-20 15:12:00,
2013-11-20 09:17:00,42.6,33.5,29.67,WSW,250,2.0,7.0,70,0.00,,,0.00,VWS V14.01,2013-11-20 15:17:00,
2013-11-20 09:22:00,43.3,32.7,29.67,WSW,257,1.0,5.0,66,0.00,,,0.00,VWS V14.01,2013-11-20 15:22:00,
2013-11-20 09:27:00,43.9,32.5,29.67,West,263,4.0,6.0,64,0.00,,,0.00,VWS V14.01,2013-11-20 15:27:00,
2013-11-20 09:32:00,44.3,31.7,29.68,West,263,1.0,6.0,61,0.00,,,0.00,VWS V14.01,2013-11-20 15:32:00,
2013-11-20 09:37:00,44.6,33.2,29.68,WSW,253,2.0,7.0,64,0.00,,,0.00,VWS V14.01,2013-11-20 15:37:00,
2013-11-20 09:42:00,44.9,32.3,29.68,WSW,253,5.0,8.0,61,0.00,,,0.00,VWS V14.01,2013-11-20 15:42:00,
2013-11-20 09:47:00,45.7,31.8,29.68,WSW,253,3.0,8.0,58,0.00,,,0.00,VWS V14.01,2013-11-20 15:47:00,
2013-11-20 09:52:00,46.5,31.2,29.68,WSW,253,1.0,5.0,55,0.00,,,0.00,VWS V14.01,2013-11-20 15:52:00,
2013-11-20 09:57:00,47.3,30.6,29.68,WNW,288,4.0,5.0,52,0.00,,,0.00,VWS V14.01,2013-11-20 15:57:00,
2013-11-20 10:02:00,48.2,28.9,29.67,WNW,295,3.0,6.0,47,0.00,,,0.00,VWS V14.01,2013-11-20 16:02:00,
2013-11-20 10:07:00,49.1,29.2,29.67,WNW,296,3.0,5.0,46,0.00,,,0.00,VWS V14.01,2013-11-20 16:07:00,
2013-11-20 10:12:00,50.2,23.6,29.67,WNW,292,3.0,6.0,35,0.00,,,0.00,VWS V14.01,2013-11-20 16:12:00,
2013-11-20 10:17:00,51.3,20.9,29.67,WNW,298,0.0,7.0,30,0.00,,,0.00,VWS V14.01,2013-11-20 16:17:00,
2013-11-20 10:22:00,51.7,20.5,29.67,NNW,329,1.0,7.0,29,0.00,,,0.00,VWS V14.01,2013-11-20 16:22:00,
2013-11-20 10:27:00,51.9,19.8,29.67,WNW,298,5.0,7.0,28,0.00,,,0.00,VWS V14.01,2013-11-20 16:27:00,
2013-11-20 10:32:00,52.0,20.8,29.66,North,359,2.0,10.0,29,0.00,,,0.00,VWS V14.01,2013-11-20 16:32:00,
2013-11-20 10:37:00,52.2,20.9,29.66,NNW,340,4.0,7.0,29,0.00,,,0.00,VWS V14.01,2013-11-20 16:37:00,
2013-11-20 10:42:00,52.3,19.3,29.66,NNW,340,3.0,7.0,27,0.00,,,0.00,VWS V14.01,2013-11-20 16:42:00,
2013-11-20 10:47:00,52.6,20.4,29.66,NNW,343,5.0,7.0,28,0.00,,,0.00,VWS V14.01,2013-11-20 16:47:00,
2013-11-20 10:52:00,52.6,21.3,29.66,North,356,5.0,8.0,29,0.00,,,0.00,VWS V14.01,2013-11-20 16:52:00,
2013-11-20 10:57:00,52.8,23.0,29.66,NNW,347,3.0,8.0,31,0.00,,,0.00,VWS V14.01,2013-11-20 16:57:00,
2013-11-20 11:02:00,52.9,19.9,29.67,North,349,2.0,9.0,27,0.00,,,0.00,VWS V14.01,2013-11-20 17:02:00,
2013-11-20 11:07:00,52.9,21.5,29.67,NNW,347,2.0,7.0,29,0.00,,,0.00,VWS V14.01,2013-11-20 17:07:00,
2013-11-20 11:12:00,53.1,20.9,29.67,North,349,1.0,7.0,28,0.00,,,0.00,VWS V14.01,2013-11-20 17:12:00,
2013-11-20 11:17:00,53.5,21.2,29.67,North,349,3.0,7.0,28,0.00,,,0.00,VWS V14.01,2013-11-20 17:17:00,
2013-11-20 11:22:00,53.6,21.3,29.67,NNW,340,1.0,5.0,28,0.00,,,0.00,VWS V14.01,2013-11-20 17:22:00,
2013-11-20 11:27:00,53.9,21.6,29.67,NW,305,2.0,5.0,28,0.00,,,0.00,VWS V14.01,2013-11-20 17:27:00,
2013-11-20 11:32:00,54.2,21.0,29.66,North,356,5.0,6.0,27,0.00,,,0.00,VWS V14.01,2013-11-20 17:32:00,
2013-11-20 11:37:00,54.5,20.3,29.66,WNW,294,0.0,7.0,26,0.00,,,0.00,VWS V14.01,2013-11-20 17:37:00,
2013-11-20 11:42:00,54.7,19.6,29.66,WNW,284,2.0,7.0,25,0.00,,,0.00,VWS V14.01,2013-11-20 17:42:00,
2013-11-20 11:47:00,54.8,19.7,29.66,WNW,288,5.0,7.0,25,0.00,,,0.00,VWS V14.01,2013-11-20 17:47:00,
2013-11-20 11:52:00,55.3,19.1,29.66,WNW,301,2.0,5.0,24,0.00,,,0.00,VWS V14.01,2013-11-20 17:52:00,
2013-11-20 11:57:00,55.7,19.5,29.66,WNW,296,2.0,7.0,24,0.00,,,0.00,VWS V14.01,2013-11-20 17:57:00,
2013-11-20 12:02:00,55.7,19.5,29.65,North,354,1.0,12.0,24,0.00,,,0.00,VWS V14.01,2013-11-20 18:02:00,
2013-11-20 12:07:00,56.0,18.8,29.65,NNW,344,2.0,5.0,23,0.00,,,0.00,VWS V14.01,2013-11-20 18:07:00,
2013-11-20 12:12:00,56.0,17.7,29.65,North,349,5.0,10.0,22,0.00,,,0.00,VWS V14.01,2013-11-20 18:12:00,
2013-11-20 12:17:00,56.0,18.8,29.64,North,352,3.0,10.0,23,0.00,,,0.00,VWS V14.01,2013-11-20 18:17:00,
2013-11-20 12:22:00,55.9,16.5,29.64,NNW,336,3.0,10.0,21,0.00,,,0.00,VWS V14.01,2013-11-20 18:22:00,
2013-11-20 12:27:00,56.3,15.8,29.64,North,359,5.0,10.0,20,0.00,,,0.00,VWS V14.01,2013-11-20 18:27:00,
2013-11-20 12:32:00,56.3,16.9,29.64,North,356,4.0,10.0,21,0.00,,,0.00,VWS V14.01,2013-11-20 18:32:00,
2013-11-20 12:37:00,56.3,16.9,29.64,NNW,347,2.0,9.0,21,0.00,,,0.00,VWS V14.01,2013-11-20 18:37:00,
2013-11-20 12:42:00,56.7,16.1,29.64,North,0,7.0,11.0,20,0.00,,,0.00,VWS V14.01,2013-11-20 18:42:00,
2013-11-20 12:47:00,56.5,17.1,29.63,NNW,328,5.0,14.0,21,0.00,,,0.00,VWS V14.01,2013-11-20 18:47:00,
2013-11-20 12:52:00,57.0,15.2,29.63,North,356,0.0,9.0,19,0.00,,,0.00,VWS V14.01,2013-11-20 18:52:00,
2013-11-20 12:57:00,57.0,16.4,29.63,North,359,2.0,11.0,20,0.00,,,0.00,VWS V14.01,2013-11-20 18:57:00,
2013-11-20 13:02:00,57.3,11.5,29.62,North,0,9.0,13.0,16,0.00,,,0.00,VWS V14.01,2013-11-20 19:02:00,
2013-11-20 13:07:00,57.5,10.2,29.62,North,356,11.0,12.0,15,0.00,,,0.00,VWS V14.01,2013-11-20 19:07:00,
2013-11-20 13:12:00,57.2,8.4,29.62,North,356,6.0,13.0,14,0.00,,,0.00,VWS V14.01,2013-11-20 19:12:00,
2013-11-20 13:17:00,57.0,11.3,29.63,North,354,7.0,13.0,16,0.00,,,0.00,VWS V14.01,2013-11-20 19:17:00,
2013-11-20 13:22:00,57.3,11.5,29.63,NNW,339,4.0,8.0,16,0.00,,,0.00,VWS V14.01,2013-11-20 19:22:00,
2013-11-20 13:27:00,58.1,9.2,29.63,NNW,340,6.0,11.0,14,0.00,,,0.00,VWS V14.01,2013-11-20 19:27:00,
2013-11-20 13:32:00,57.8,8.9,29.61,North,359,9.0,14.0,14,0.00,,,0.00,VWS V14.01,2013-11-20 19:32:00,
2013-11-20 13:37:00,57.6,10.3,29.61,North,359,10.0,14.0,15,0.00,,,0.00,VWS V14.01,2013-11-20 19:37:00,
2013-11-20 13:42:00,57.6,10.3,29.61,North,0,6.0,14.0,15,0.00,,,0.00,VWS V14.01,2013-11-20 19:42:00,
2013-11-20 13:47:00,57.6,8.8,29.61,North,0,6.0,14.0,14,0.00,,,0.00,VWS V14.01,2013-11-20 19:47:00,
2013-11-20 13:52:00,58.0,9.1,29.61,North,11,5.0,10.0,14,0.00,,,0.00,VWS V14.01,2013-11-20 19:52:00,
2013-11-20 13:57:00,57.3,12.9,29.61,North,359,7.0,10.0,17,0.00,,,0.00,VWS V14.01,2013-11-20 19:57:00,
2013-11-20 14:02:00,57.3,10.1,29.61,North,3,3.0,10.0,15,0.00,,,0.00,VWS V14.01,2013-11-20 20:02:00,
2013-11-20 14:07:00,57.2,11.4,29.61,North,0,3.0,6.0,16,0.00,,,0.00,VWS V14.01,2013-11-20 20:07:00,
2013-11-20 14:12:00,57.2,11.4,29.61,East,100,3.0,8.0,16,0.00,,,0.00,VWS V14.01,2013-11-20 20:12:00,
2013-11-20 14:17:00,57.3,11.5,29.62,North,359,7.0,10.0,16,0.00,,,0.00,VWS V14.01,2013-11-20 20:17:00,
2013-11-20 14:22:00,57.5,11.7,29.62,North,356,8.0,10.0,16,0.00,,,0.00,VWS V14.01,2013-11-20 20:22:00,
2013-11-20 14:27:00,57.2,10.0,29.62,North,359,6.0,10.0,15,0.00,,,0.00,VWS V14.01,2013-11-20 20:27:00,
2013-11-20 14:32:00,57.0,12.6,29.62,North,359,5.0,10.0,17,0.00,,,0.00,VWS V14.01,2013-11-20 20:32:00,
2013-11-20 14:37:00,57.5,11.7,29.62,North,359,1.0,7.0,16,0.00,,,0.00,VWS V14.01,2013-11-20 20:37:00,
2013-11-20 14:42:00,57.6,11.8,29.62,North,359,5.0,7.0,16,0.00,,,0.00,VWS V14.01,2013-11-20 20:42:00,
2013-11-20 14:47:00,58.0,9.1,29.62,North,359,5.0,7.0,14,0.00,,,0.00,VWS V14.01,2013-11-20 20:47:00,
2013-11-20 14:52:00,57.6,13.1,29.62,North,359,5.0,8.0,17,0.00,,,0.00,VWS V14.01,2013-11-20 20:52:00,
2013-11-20 14:57:00,58.0,9.1,29.62,NNE,21,5.0,8.0,14,0.00,,,0.00,VWS V14.01,2013-11-20 20:57:00,
2013-11-20 15:02:00,58.3,7.7,29.63,NNE,16,5.0,8.0,13,0.00,,,0.00,VWS V14.01,2013-11-20 21:02:00,
2013-11-20 15:07:00,58.4,10.9,29.63,NNE,16,3.0,5.0,15,0.00,,,0.00,VWS V14.01,2013-11-20 21:07:00,
2013-11-20 15:12:00,58.7,6.2,29.63,NNE,13,4.0,6.0,12,0.00,,,0.00,VWS V14.01,2013-11-20 21:12:00,
2013-11-20 15:17:00,59.0,6.5,29.63,North,11,5.0,6.0,12,0.00,,,0.00,VWS V14.01,2013-11-20 21:17:00,
2013-11-20 15:22:00,59.2,6.6,29.63,North,11,0.0,6.0,12,0.00,,,0.00,VWS V14.01,2013-11-20 21:22:00,
2013-11-20 15:27:00,59.0,9.9,29.63,North,11,2.0,6.0,14,0.00,,,0.00,VWS V14.01,2013-11-20 21:27:00,
2013-11-20 15:32:00,59.0,6.5,29.64,North,11,2.0,6.0,12,0.00,,,0.00,VWS V14.01,2013-11-20 21:32:00,
2013-11-20 15:37:00,59.3,4.8,29.64,North,11,5.0,5.0,11,0.00,,,0.00,VWS V14.01,2013-11-20 21:37:00,
2013-11-20 15:42:00,59.3,6.7,29.64,North,11,0.0,5.0,12,0.00,,,0.00,VWS V14.01,2013-11-20 21:42:00,
2013-11-20 15:47:00,59.3,4.8,29.64,North,11,1.0,5.0,11,0.00,,,0.00,VWS V14.01,2013-11-20 21:47:00,
2013-11-20 15:52:00,59.3,6.7,29.64,North,11,0.0,1.0,12,0.00,,,0.00,VWS V14.01,2013-11-20 21:52:00,
2013-11-20 15:57:00,59.6,6.9,29.64,North,11,2.0,3.0,12,0.00,,,0.00,VWS V14.01,2013-11-20 21:57:00,
2013-11-20 16:02:00,59.5,5.0,29.66,North,11,0.0,3.0,11,0.00,,,0.00,VWS V14.01,2013-11-20 22:02:00,
2013-11-20 16:07:00,59.8,3.1,29.66,North,11,0.0,0.0,10,0.00,,,0.00,VWS V14.01,2013-11-20 22:07:00,
2013-11-20 16:12:00,59.8,3.1,29.66,North,11,0.0,0.0,10,0.00,,,0.00,VWS V14.01,2013-11-20 22:12:00,
2013-11-20 16:17:00,59.9,3.2,29.66,North,11,0.0,0.0,10,0.00,,,0.00,VWS V14.01,2013-11-20 22:17:00,
2013-11-20 16:22:00,59.9,3.2,29.66,North,11,0.0,0.0,10,0.00,,,0.00,VWS V14.01,2013-11-20 22:22:00,
2013-11-20 16:27:00,59.9,0.9,29.66,North,11,0.0,0.0,9,0.00,,,0.00,VWS V14.01,2013-11-20 22:27:00,
2013-11-20 16:32:00,59.8,5.2,29.67,North,11,0.0,0.0,11,0.00,,,0.00,VWS V14.01,2013-11-20 22:32:00,
2013-11-20 16:37:00,59.2,6.6,29.67,North,11,0.0,0.0,12,0.00,,,0.00,VWS V14.01,2013-11-20 22:37:00,
2013-11-20 16:42:00,58.9,4.5,29.67,North,11,0.0,0.0,11,0.00,,,0.00,VWS V14.01,2013-11-20 22:42:00,
2013-11-20 16:47:00,58.6,4.3,29.67,North,11,0.0,0.0,11,0.00,,,0.00,VWS V14.01,2013-11-20 22:47:00,
2013-11-20 16:52:00,58.1,5.8,29.67,North,11,0.0,0.0,12,0.00,,,0.00,VWS V14.01,2013-11-20 22:52:00,
2013-11-20 16:57:00,57.8,3.7,29.67,North,11,0.0,0.0,11,0.00,,,0.00,VWS V14.01,2013-11-20 22:57:00,
2013-11-20 17:02:00,57.5,5.3,29.68,North,11,0.0,0.0,12,0.00,,,0.00,VWS V14.01,2013-11-20 23:02:00,
2013-11-20 17:07:00,57.0,6.7,29.68,North,11,0.0,0.0,13,0.00,,,0.00,VWS V14.01,2013-11-20 23:07:00,
2013-11-20 17:12:00,56.5,7.9,29.68,North,11,0.0,0.0,14,0.00,,,0.00,VWS V14.01,2013-11-20 23:12:00,
2013-11-20 17:17:00,56.2,9.2,29.69,North,11,0.0,0.0,15,0.00,,,0.00,VWS V14.01,2013-11-20 23:17:00,
2013-11-20 17:22:00,54.8,14.5,29.69,North,11,0.0,0.0,20,0.00,,,0.00,VWS V14.01,2013-11-20 23:22:00,
2013-11-20 17:27:00,54.2,12.9,29.69,North,11,0.0,0.0,19,0.00,,,0.00,VWS V14.01,2013-11-20 23:27:00,
2013-11-20 17:32:00,53.9,14.9,29.70,North,11,0.0,0.0,21,0.00,,,0.00,VWS V14.01,2013-11-20 23:32:00,
2013-11-20 17:37:00,53.6,15.7,29.70,North,11,0.0,0.0,22,0.00,,,0.00,VWS V14.01,2013-11-20 23:37:00,
2013-11-20 17:42:00,53.3,15.4,29.70,North,11,0.0,0.0,22,0.00,,,0.00,VWS V14.01,2013-11-20 23:42:00,
2013-11-20 17:47:00,53.1,15.3,29.71,North,11,0.0,0.0,22,0.00,,,0.00,VWS V14.01,2013-11-20 23:47:00,
2013-11-20 17:52:00,52.9,15.1,29.71,North,11,0.0,0.0,22,0.00,,,0.00,VWS V14.01,2013-11-20 23:52:00,
2013-11-20 17:57:00,52.6,15.9,29.71,North,11,0.0,0.0,23,0.00,,,0.00,VWS V14.01,2013-11-20 23:57:00,
2013-11-20 18:02:00,52.2,17.5,29.72,North,11,0.0,0.0,25,0.00,,,0.00,VWS V14.01,2013-11-21 00:02:00,
2013-11-20 18:07:00,51.6,18.7,29.72,North,11,0.0,0.0,27,0.00,,,0.00,VWS V14.01,2013-11-21 00:07:00,
2013-11-20 18:12:00,51.3,17.6,29.72,North,11,0.0,0.0,26,0.00,,,0.00,VWS V14.01,2013-11-21 00:12:00,
2013-11-20 18:17:00,51.0,17.3,29.73,North,11,0.0,0.0,26,0.00,,,0.00,VWS V14.01,2013-11-21 00:17:00,
2013-11-20 18:22:00,50.7,18.8,29.73,North,11,0.0,0.0,28,0.00,,,0.00,VWS V14.01,2013-11-21 00:22:00,
2013-11-20 18:27:00,50.5,19.5,29.73,North,11,0.0,0.0,29,0.00,,,0.00,VWS V14.01,2013-11-21 00:27:00,
2013-11-20 18:32:00,50.2,19.2,29.74,North,11,0.0,0.0,29,0.00,,,0.00,VWS V14.01,2013-11-21 00:32:00,
2013-11-20 18:37:00,50.2,20.0,29.74,North,11,0.0,0.0,30,0.00,,,0.00,VWS V14.01,2013-11-21 00:37:00,
2013-11-20 18:42:00,50.1,19.1,29.74,North,11,0.0,0.0,29,0.00,,,0.00,VWS V14.01,2013-11-21 00:42:00,
2013-11-20 18:47:00,50.1,19.1,29.75,North,11,0.0,0.0,29,0.00,,,0.00,VWS V14.01,2013-11-21 00:47:00,
2013-11-20 18:52:00,49.9,18.9,29.75,North,11,0.0,0.0,29,0.00,,,0.00,VWS V14.01,2013-11-21 00:52:00,
2013-11-20 18:57:00,49.9,17.3,29.75,North,11,0.0,0.0,27,0.00,,,0.00,VWS V14.01,2013-11-21 00:57:00,
2013-11-20 19:02:00,50.1,18.3,29.76,North,11,0.0,0.0,28,0.00,,,0.00,VWS V14.01,2013-11-21 01:02:00,
2013-11-20 19:07:00,50.1,18.3,29.76,North,11,0.0,0.0,28,0.00,,,0.00,VWS V14.01,2013-11-21 01:07:00,
2013-11-20 19:12:00,49.8,21.1,29.76,North,11,0.0,0.0,32,0.00,,,0.00,VWS V14.01,2013-11-21 01:12:00,
2013-11-20 19:17:00,49.6,21.0,29.76,North,11,0.0,0.0,32,0.00,,,0.00,VWS V14.01,2013-11-21 01:17:00,
2013-11-20 19:22:00,49.4,22.9,29.76,North,11,0.0,0.0,35,0.00,,,0.00,VWS V14.01,2013-11-21 01:22:00,
2013-11-20 19:27:00,48.9,22.5,29.76,North,11,0.0,0.0,35,0.00,,,0.00,VWS V14.01,2013-11-21 01:27:00,
2013-11-20 19:32:00,48.8,23.0,29.77,North,11,2.0,2.0,36,0.00,,,0.00,VWS V14.01,2013-11-21 01:32:00,
2013-11-20 19:37:00,48.5,25.9,29.77,North,11,5.0,5.0,41,0.00,,,0.00,VWS V14.01,2013-11-21 01:37:00,
2013-11-20 19:42:00,48.2,25.6,29.77,NNE,13,5.0,5.0,41,0.00,,,0.00,VWS V14.01,2013-11-21 01:42:00,
2013-11-20 19:47:00,48.3,25.7,29.78,NNE,13,5.0,5.0,41,0.00,,,0.00,VWS V14.01,2013-11-21 01:47:00,
2013-11-20 19:52:00,48.2,25.6,29.78,NNE,13,4.0,5.0,41,0.00,,,0.00,VWS V14.01,2013-11-21 01:52:00,
2013-11-20 19:57:00,47.9,27.0,29.78,NNE,13,5.0,6.0,44,0.00,,,0.00,VWS V14.01,2013-11-21 01:57:00,
2013-11-20 20:02:00,47.9,25.9,29.78,NNE,16,7.0,7.0,42,0.00,,,0.00,VWS V14.01,2013-11-21 02:02:00,
2013-11-20 20:07:00,47.6,25.1,29.78,NNE,18,5.0,7.0,41,0.00,,,0.00,VWS V14.01,2013-11-21 02:07:00,
2013-11-20 20:12:00,47.9,23.5,29.78,NNE,18,3.0,7.0,38,0.00,,,0.00,VWS V14.01,2013-11-21 02:12:00,
2013-11-20 20:17:00,47.7,21.4,29.78,NNE,21,6.0,7.0,35,0.00,,,0.00,VWS V14.01,2013-11-21 02:17:00,
2013-11-20 20:22:00,47.1,22.8,29.78,NNE,23,5.0,7.0,38,0.00,,,0.00,VWS V14.01,2013-11-21 02:22:00,
2013-11-20 20:27:00,46.7,21.8,29.78,NNE,25,4.0,7.0,37,0.00,,,0.00,VWS V14.01,2013-11-21 02:27:00,
2013-11-20 20:32:00,46.1,22.5,29.79,NNE,25,3.0,7.0,39,0.00,,,0.00,VWS V14.01,2013-11-21 02:32:00,
2013-11-20 20:37:00,45.7,23.9,29.79,NNE,27,6.0,6.0,42,0.00,,,0.00,VWS V14.01,2013-11-21 02:37:00,
2013-11-20 20:42:00,45.4,23.1,29.79,NNE,27,7.0,7.0,41,0.00,,,0.00,VWS V14.01,2013-11-21 02:42:00,
2013-11-20 20:47:00,45.1,22.8,29.80,NNE,28,7.0,7.0,41,0.00,,,0.00,VWS V14.01,2013-11-21 02:47:00,
2013-11-20 20:52:00,44.6,25.1,29.80,NNE,28,3.0,6.0,46,0.00,,,0.00,VWS V14.01,2013-11-21 02:52:00,
2013-11-20 20:57:00,44.2,24.2,29.80,NNE,28,5.0,6.0,45,0.00,,,0.00,VWS V14.01,2013-11-21 02:57:00,
2013-11-20 21:02:00,44.1,24.7,29.80,NE,38,5.0,7.0,46,0.00,,,0.00,VWS V14.01,2013-11-21 03:02:00,
2013-11-20 21:07:00,44.1,24.1,29.80,NE,40,5.0,7.0,45,0.00,,,0.00,VWS V14.01,2013-11-21 03:07:00,
2013-11-20 21:12:00,43.8,24.9,29.80,NE,40,3.0,7.0,47,0.00,,,0.00,VWS V14.01,2013-11-21 03:12:00,
2013-11-20 21:17:00,43.9,26.0,29.79,NE,38,5.0,7.0,49,0.00,,,0.00,VWS V14.01,2013-11-21 03:17:00,
2013-11-20 21:22:00,43.9,27.4,29.79,NE,38,5.0,6.0,52,0.00,,,0.00,VWS V14.01,2013-11-21 03:22:00,
2013-11-20 21:27:00,43.6,27.1,29.79,NNE,32,6.0,8.0,52,0.00,,,0.00,VWS V14.01,2013-11-21 03:27:00,
2013-11-20 21:32:00,43.6,26.7,29.79,NE,37,4.0,8.0,51,0.00,,,0.00,VWS V14.01,2013-11-21 03:32:00,
2013-11-20 21:37:00,43.3,27.8,29.79,NE,38,5.0,6.0,54,0.00,,,0.00,VWS V14.01,2013-11-21 03:37:00,
2013-11-20 21:42:00,43.3,27.8,29.79,NE,38,4.0,7.0,54,0.00,,,0.00,VWS V14.01,2013-11-21 03:42:00,
2013-11-20 21:47:00,43.2,26.3,29.81,NE,38,6.0,10.0,51,0.00,,,0.00,VWS V14.01,2013-11-21 03:47:00,
2013-11-20 21:52:00,42.9,28.3,29.81,NE,34,5.0,10.0,56,0.00,,,0.00,VWS V14.01,2013-11-21 03:52:00,
2013-11-20 21:57:00,42.6,28.5,29.81,NE,34,2.0,10.0,57,0.00,,,0.00,VWS V14.01,2013-11-21 03:57:00,
2013-11-20 22:02:00,42.6,28.9,29.82,NE,37,8.0,10.0,58,0.00,,,0.00,VWS V14.01,2013-11-21 04:02:00,
2013-11-20 22:07:00,42.6,28.0,29.82,NE,42,5.0,12.0,56,0.00,,,0.00,VWS V14.01,2013-11-21 04:07:00,
2013-11-20 22:12:00,42.5,27.5,29.82,NNE,31,7.0,12.0,55,0.00,,,0.00,VWS V14.01,2013-11-21 04:12:00,
2013-11-20 22:17:00,42.5,28.4,29.84,NE,38,7.0,12.0,57,0.00,,,0.00,VWS V14.01,2013-11-21 04:17:00,
2013-11-20 22:22:00,42.2,28.1,29.84,NNE,32,8.0,10.0,57,0.00,,,0.00,VWS V14.01,2013-11-21 04:22:00,
2013-11-20 22:27:00,41.9,28.2,29.84,NNE,32,5.0,12.0,58,0.00,,,0.00,VWS V14.01,2013-11-21 04:27:00,
2013-11-20 22:32:00,41.5,28.7,29.86,NNE,27,9.0,13.0,60,0.00,,,0.00,VWS V14.01,2013-11-21 04:32:00,
2013-11-20 22:38:00,41.1,28.7,29.86,NE,40,9.0,12.0,61,0.00,,,0.00,VWS V14.01,2013-11-21 04:38:00,
2013-11-20 22:43:00,40.8,28.8,29.86,NE,38,7.0,14.0,62,0.00,,,0.00,VWS V14.01,2013-11-21 04:43:00,
2013-11-20 22:48:00,40.3,29.9,29.88,North,3,11.0,17.0,66,0.00,,,0.00,VWS V14.01,2013-11-21 04:48:00,
2013-11-20 22:53:00,39.9,30.2,29.88,NNE,28,7.0,14.0,68,0.00,,,0.00,VWS V14.01,2013-11-21 04:53:00,
2013-11-20 22:58:00,39.6,31.3,29.88,NNE,31,11.0,14.0,72,0.00,,,0.00,VWS V14.01,2013-11-21 04:58:00,
2013-11-20 23:01:00,39.5,31.2,29.88,NNE,17,12.0,14.0,72,0.00,,,0.00,VWS V14.01,2013-11-21 05:01:00,
2013-11-20 23:02:00,39.5,31.2,29.88,NE,45,8.0,14.0,72,0.00,,,0.00,VWS V14.01,2013-11-21 05:02:00,
2013-11-20 23:07:00,39.2,32.9,29.89,NNE,28,7.0,12.0,78,0.00,,,0.00,VWS V14.01,2013-11-21 05:07:00,
2013-11-20 23:12:00,38.9,34.2,29.89,NNE,16,8.0,12.0,83,0.00,,,0.00,VWS V14.01,2013-11-21 05:12:00,
2013-11-20 23:17:00,38.8,32.9,29.89,NE,34,13.0,14.0,79,0.00,,,0.00,VWS V14.01,2013-11-21 05:17:00,
2013-11-20 23:22:00,38.5,34.4,29.90,NNE,27,11.0,13.0,85,0.00,,,0.00,VWS V14.01,2013-11-21 05:22:00,
2013-11-20 23:27:00,38.2,35.8,29.90,NNE,18,10.0,13.0,91,0.00,,,0.00,VWS V14.01,2013-11-21 05:27:00,
2013-11-20 23:32:00,38.0,36.7,29.90,North,8,11.0,13.0,95,0.00,,,0.00,VWS V14.01,2013-11-21 05:32:00,
2013-11-20 23:36:00,37.6,36.0,29.90,NNE,14,10.0,12.0,94,0.00,,,0.00,VWS V14.01,2013-11-21 05:36:00,
2013-11-20 23:42:00,37.3,34.4,29.90,NNE,20,9.0,17.0,89,0.00,,,0.00,VWS V14.01,2013-11-21 05:42:00,
2013-11-20 23:47:00,36.9,34.5,29.90,NE,34,13.0,17.0,91,0.00,,,0.00,VWS V14.01,2013-11-21 05:47:00,
2013-11-20 23:52:00,36.6,34.2,29.93,North,11,9.0,18.0,91,0.00,,,0.00,VWS V14.01,2013-11-21 05:52:00,
2013-11-20 23:57:00,36.2,33.3,29.93,NNE,25,10.0,18.0,89,0.00,,,0.00,VWS V14.01,2013-11-21 05:57:00,
2013-11-20 23:58:00,36.0,33.1,29.93,NE,34,12.0,18.0,89,0.00,,,0.00,VWS V14.01,2013-11-21 05:58:00,